Kedron, Arkansas
Current Conditions -  °F | °C
As of 1:53 AM on Monday 24 Nov 2014 (Local Time) from KPBF Reporting Station
Light Rain Light Rain  
Wind Chill: 57°   Ceiling: 3700
Heat Index: 57°   Visibility: 10mi
Dew Point: 47°   Wind: 16mph
Humidity: 69%   Direction: 240°WSW
Pressure: 29.58"   Gusts: 25mph
Location:  33.947°N, 92.1633°W
Report Text: KPBF 240753Z AUTO 24014G22KT 10SM -RA OVC037 14/08 A2958 RMK AO2 SLP014 P0000 T01390083
Loading
Personal Weather Stations






























Interactive Weather Map New forecast layout! Learn more

10-Day Weather Forecast

Advertisements
Track Severe Weather on mobile